sensor_id;sensor_type;location;lat;lon;timestamp;temperature;humidity
39189;DHT22;24915;50.858;4.376;2022-11-15T00:00:32;12.20;99.90
39189;DHT22;24915;50.858;4.376;2022-11-15T00:02:58;12.20;99.90
39189;DHT22;24915;50.858;4.376;2022-11-15T00:05:23;12.20;99.90
39189;DHT22;24915;50.858;4.376;2022-11-15T00:07:50;12.30;99.90
39189;DHT22;24915;50.858;4.376;2022-11-15T00:10:15;12.30;99.90
39189;DHT22;24915;50.858;4.376;2022-11-15T00:12:41;12.30;99.90
39189;DHT22;24915;50.858;4.376;2022-11-15T00:15:07;12.30;99.90
39189;DHT22;24915;50.858;4.376;2022-11-15T00:17:33;12.30;99.90
39189;DHT22;24915;50.858;4.376;2022-11-15T00:19:58;12.30;99.90
39189;DHT22;24915;50.858;4.376;2022-11-15T00:22:24;12.30;99.90
39189;DHT22;24915;50.858;4.376;2022-11-15T00:24:50;12.30;99.90
39189;DHT22;24915;50.858;4.376;2022-11-15T00:27:15;12.30;99.90
39189;DHT22;24915;50.858;4.376;2022-11-15T00:29:41;12.30;99.90
39189;DHT22;24915;50.858;4.376;2022-11-15T00:32:11;12.30;99.90
39189;DHT22;24915;50.858;4.376;2022-11-15T00:34:36;12.30;99.90
39189;DHT22;24915;50.858;4.376;2022-11-15T00:37:02;12.30;99.90
39189;DHT22;24915;50.858;4.376;2022-11-15T00:39:28;12.30;99.90
39189;DHT22;24915;50.858;4.376;2022-11-15T00:41:53;12.30;99.90
39189;DHT22;24915;50.858;4.376;2022-11-15T00:44:19;12.30;99.90
39189;DHT22;24915;50.858;4.376;2022-11-15T00:46:44;12.30;99.90
39189;DHT22;24915;50.858;4.376;2022-11-15T00:49:10;12.40;99.90
39189;DHT22;24915;50.858;4.376;2022-11-15T00:51:36;12.40;99.90
39189;DHT22;24915;50.858;4.376;2022-11-15T00:54:01;12.40;99.90
39189;DHT22;24915;50.858;4.376;2022-11-15T00:56:27;12.40;99.90
39189;DHT22;24915;50.858;4.376;2022-11-15T00:58:53;12.40;99.90
39189;DHT22;24915;50.858;4.376;2022-11-15T01:01:18;12.40;99.90
39189;DHT22;24915;50.858;4.376;2022-11-15T01:03:44;12.40;99.90
39189;DHT22;24915;50.858;4.376;2022-11-15T01:06:10;12.30;99.90
39189;DHT22;24915;50.858;4.376;2022-11-15T01:08:39;12.40;99.90
39189;DHT22;24915;50.858;4.376;2022-11-15T01:11:10;12.40;99.90
39189;DHT22;24915;50.858;4.376;2022-11-15T01:13:37;12.40;99.90
39189;DHT22;24915;50.858;4.376;2022-11-15T01:16:14;12.40;99.90
39189;DHT22;24915;50.858;4.376;2022-11-15T01:18:42;12.40;99.90
39189;DHT22;24915;50.858;4.376;2022-11-15T01:21:10;12.40;99.90
39189;DHT22;24915;50.858;4.376;2022-11-15T01:23:36;12.40;99.90
39189;DHT22;24915;50.858;4.376;2022-11-15T01:26:04;12.40;99.90
39189;DHT22;24915;50.858;4.376;2022-11-15T01:28:35;12.40;99.90
39189;DHT22;24915;50.858;4.376;2022-11-15T01:31:01;12.40;99.90
39189;DHT22;24915;50.858;4.376;2022-11-15T01:33:28;12.40;99.90
39189;DHT22;24915;50.858;4.376;2022-11-15T01:35:54;12.40;99.90
39189;DHT22;24915;50.858;4.376;2022-11-15T01:38:20;12.40;99.90
39189;DHT22;24915;50.858;4.376;2022-11-15T01:40:45;12.40;99.90
39189;DHT22;24915;50.858;4.376;2022-11-15T01:45:58;12.40;99.90
39189;DHT22;24915;50.858;4.376;2022-11-15T01:48:25;12.40;99.90
39189;DHT22;24915;50.858;4.376;2022-11-15T01:50:55;12.40;99.90
39189;DHT22;24915;50.858;4.376;2022-11-15T01:53:21;12.30;99.90
39189;DHT22;24915;50.858;4.376;2022-11-15T01:55:49;12.30;99.90
39189;DHT22;24915;50.858;4.376;2022-11-15T01:58:15;12.30;99.90
39189;DHT22;24915;50.858;4.376;2022-11-15T02:00:40;12.30;99.90
39189;DHT22;24915;50.858;4.376;2022-11-15T02:03:06;12.30;99.90
39189;DHT22;24915;50.858;4.376;2022-11-15T02:05:32;12.30;99.90
39189;DHT22;24915;50.858;4.376;2022-11-15T02:07:59;12.30;99.90
39189;DHT22;24915;50.858;4.376;2022-11-15T02:10:25;12.20;99.90
39189;DHT22;24915;50.858;4.376;2022-11-15T02:12:51;12.20;99.90
39189;DHT22;24915;50.858;4.376;2022-11-15T02:15:18;12.20;99.90
39189;DHT22;24915;50.858;4.376;2022-11-15T02:20:42;12.20;99.90
39189;DHT22;24915;50.858;4.376;2022-11-15T02:29:06;12.20;99.90
39189;DHT22;24915;50.858;4.376;2022-11-15T02:32:02;12.10;99.90
39189;DHT22;24915;50.858;4.376;2022-11-15T02:37:34;12.10;99.90
39189;DHT22;24915;50.858;4.376;2022-11-15T02:40:13;12.20;99.90
39189;DHT22;24915;50.858;4.376;2022-11-15T02:42:48;12.10;99.90
39189;DHT22;24915;50.858;4.376;2022-11-15T02:45:39;12.10;99.90
39189;DHT22;24915;50.858;4.376;2022-11-15T02:48:06;12.10;99.90
39189;DHT22;24915;50.858;4.376;2022-11-15T02:50:32;12.10;99.90
39189;DHT22;24915;50.858;4.376;2022-11-15T02:52:59;12.10;99.90
39189;DHT22;24915;50.858;4.376;2022-11-15T02:55:38;12.10;99.90
39189;DHT22;24915;50.858;4.376;2022-11-15T03:00:45;12.10;99.90
39189;DHT22;24915;50.858;4.376;2022-11-15T03:03:16;12.10;99.90
39189;DHT22;24915;50.858;4.376;2022-11-15T03:05:53;12.10;99.90
39189;DHT22;24915;50.858;4.376;2022-11-15T03:11:13;12.10;99.90
39189;DHT22;24915;50.858;4.376;2022-11-15T03:14:00;12.10;99.90
39189;DHT22;24915;50.858;4.376;2022-11-15T03:16:58;12.00;99.90
39189;DHT22;24915;50.858;4.376;2022-11-15T03:19:32;12.00;99.90
39189;DHT22;24915;50.858;4.376;2022-11-15T03:22:00;12.00;99.90
39189;DHT22;24915;50.858;4.376;2022-11-15T03:24:29;12.00;99.90
39189;DHT22;24915;50.858;4.376;2022-11-15T03:26:55;12.00;99.90
39189;DHT22;24915;50.858;4.376;2022-11-15T03:29:30;12.00;99.90
39189;DHT22;24915;50.858;4.376;2022-11-15T03:32:02;12.00;99.90
39189;DHT22;24915;50.858;4.376;2022-11-15T03:34:41;12.00;99.90
39189;DHT22;24915;50.858;4.376;2022-11-15T03:37:12;11.90;99.90
39189;DHT22;24915;50.858;4.376;2022-11-15T03:39:38;12.00;99.90
39189;DHT22;24915;50.858;4.376;2022-11-15T03:45:19;11.90;99.90
39189;DHT22;24915;50.858;4.376;2022-11-15T03:47:54;11.90;99.90
39189;DHT22;24915;50.858;4.376;2022-11-15T03:50:24;11.90;99.90
39189;DHT22;24915;50.858;4.376;2022-11-15T03:52:50;11.90;99.90
39189;DHT22;24915;50.858;4.376;2022-11-15T03:55:20;11.90;99.90
39189;DHT22;24915;50.858;4.376;2022-11-15T03:57:49;11.80;99.90
39189;DHT22;24915;50.858;4.376;2022-11-15T04:00:16;11.90;99.90
39189;DHT22;24915;50.858;4.376;2022-11-15T04:02:41;11.90;99.90
39189;DHT22;24915;50.858;4.376;2022-11-15T04:05:07;11.90;99.90
39189;DHT22;24915;50.858;4.376;2022-11-15T04:07:33;11.80;99.90
39189;DHT22;24915;50.858;4.376;2022-11-15T04:09:59;11.80;99.90
39189;DHT22;24915;50.858;4.376;2022-11-15T04:15:01;11.80;99.90
39189;DHT22;24915;50.858;4.376;2022-11-15T04:17:57;11.70;99.90
39189;DHT22;24915;50.858;4.376;2022-11-15T04:20:24;11.80;99.90
39189;DHT22;24915;50.858;4.376;2022-11-15T04:23:16;11.70;99.90
39189;DHT22;24915;50.858;4.376;2022-11-15T04:26:11;11.70;99.90
39189;DHT22;24915;50.858;4.376;2022-11-15T04:28:38;11.70;99.90
39189;DHT22;24915;50.858;4.376;2022-11-15T04:31:23;11.70;99.90
39189;DHT22;24915;50.858;4.376;2022-11-15T04:33:49;11.70;99.90
39189;DHT22;24915;50.858;4.376;2022-11-15T04:36:15;11.70;99.90
39189;DHT22;24915;50.858;4.376;2022-11-15T04:38:59;11.70;99.90
39189;DHT22;24915;50.858;4.376;2022-11-15T04:41:24;11.60;99.90
39189;DHT22;24915;50.858;4.376;2022-11-15T04:43:50;11.70;99.90
39189;DHT22;24915;50.858;4.376;2022-11-15T04:46:16;11.60;99.90
39189;DHT22;24915;50.858;4.376;2022-11-15T04:48:41;11.60;99.90
39189;DHT22;24915;50.858;4.376;2022-11-15T04:51:07;11.60;99.90
39189;DHT22;24915;50.858;4.376;2022-11-15T04:53:33;11.50;99.90
39189;DHT22;24915;50.858;4.376;2022-11-15T04:55:58;11.50;99.90
39189;DHT22;24915;50.858;4.376;2022-11-15T04:58:24;11.50;99.90
39189;DHT22;24915;50.858;4.376;2022-11-15T05:00:49;11.50;99.90
39189;DHT22;24915;50.858;4.376;2022-11-15T05:03:15;11.50;99.90
39189;DHT22;24915;50.858;4.376;2022-11-15T05:05:59;11.50;99.90
39189;DHT22;24915;50.858;4.376;2022-11-15T05:08:25;11.40;99.90
39189;DHT22;24915;50.858;4.376;2022-11-15T05:10:51;11.40;99.90
39189;DHT22;24915;50.858;4.376;2022-11-15T05:13:17;11.40;99.90
39189;DHT22;24915;50.858;4.376;2022-11-15T05:15:42;11.30;99.90
39189;DHT22;24915;50.858;4.376;2022-11-15T05:18:08;11.30;99.90
39189;DHT22;24915;50.858;4.376;2022-11-15T05:20:34;11.30;99.90
39189;DHT22;24915;50.858;4.376;2022-11-15T05:23:00;11.30;99.90
39189;DHT22;24915;50.858;4.376;2022-11-15T05:25:25;11.20;99.90
39189;DHT22;24915;50.858;4.376;2022-11-15T05:27:51;11.20;99.90
39189;DHT22;24915;50.858;4.376;2022-11-15T05:30:17;11.20;99.90
39189;DHT22;24915;50.858;4.376;2022-11-15T05:32:43;11.10;99.90
39189;DHT22;24915;50.858;4.376;2022-11-15T05:35:20;11.10;99.90
39189;DHT22;24915;50.858;4.376;2022-11-15T05:37:47;11.10;99.90
39189;DHT22;24915;50.858;4.376;2022-11-15T05:40:13;11.10;99.90
39189;DHT22;24915;50.858;4.376;2022-11-15T05:42:39;11.10;99.90
39189;DHT22;24915;50.858;4.376;2022-11-15T05:45:06;11.00;99.90
39189;DHT22;24915;50.858;4.376;2022-11-15T05:47:34;11.00;99.90
39189;DHT22;24915;50.858;4.376;2022-11-15T05:50:01;11.00;99.90
39189;DHT22;24915;50.858;4.376;2022-11-15T05:52:30;11.00;99.90
39189;DHT22;24915;50.858;4.376;2022-11-15T05:54:57;10.90;99.90
39189;DHT22;24915;50.858;4.376;2022-11-15T05:57:24;10.90;99.90
39189;DHT22;24915;50.858;4.376;2022-11-15T05:59:50;10.90;99.90
39189;DHT22;24915;50.858;4.376;2022-11-15T06:02:16;10.90;99.90
39189;DHT22;24915;50.858;4.376;2022-11-15T06:04:42;10.90;99.90
39189;DHT22;24915;50.858;4.376;2022-11-15T06:07:07;10.90;99.90
39189;DHT22;24915;50.858;4.376;2022-11-15T06:09:33;10.90;99.90
39189;DHT22;24915;50.858;4.376;2022-11-15T06:11:58;10.80;99.90
39189;DHT22;24915;50.858;4.376;2022-11-15T06:14:24;10.80;99.90
39189;DHT22;24915;50.858;4.376;2022-11-15T06:16:50;10.80;99.90
39189;DHT22;24915;50.858;4.376;2022-11-15T06:19:16;10.80;99.90
39189;DHT22;24915;50.858;4.376;2022-11-15T06:21:42;10.70;99.90
39189;DHT22;24915;50.858;4.376;2022-11-15T06:24:07;10.70;99.90
39189;DHT22;24915;50.858;4.376;2022-11-15T06:26:33;10.70;99.90
39189;DHT22;24915;50.858;4.376;2022-11-15T06:28:59;10.70;99.90
39189;DHT22;24915;50.858;4.376;2022-11-15T06:31:25;10.70;99.90
39189;DHT22;24915;50.858;4.376;2022-11-15T06:33:50;10.60;99.90
39189;DHT22;24915;50.858;4.376;2022-11-15T06:36:16;10.60;99.90
39189;DHT22;24915;50.858;4.376;2022-11-15T06:38:43;10.60;99.90
39189;DHT22;24915;50.858;4.376;2022-11-15T06:41:10;10.60;99.90
39189;DHT22;24915;50.858;4.376;2022-11-15T06:43:36;10.60;99.90
39189;DHT22;24915;50.858;4.376;2022-11-15T06:46:04;10.60;99.90
39189;DHT22;24915;50.858;4.376;2022-11-15T06:48:30;10.50;99.90
39189;DHT22;24915;50.858;4.376;2022-11-15T06:51:01;10.50;99.90
39189;DHT22;24915;50.858;4.376;2022-11-15T06:53:27;10.50;99.90
39189;DHT22;24915;50.858;4.376;2022-11-15T06:55:53;10.40;99.90
39189;DHT22;24915;50.858;4.376;2022-11-15T06:58:20;10.40;99.90
39189;DHT22;24915;50.858;4.376;2022-11-15T07:00:45;10.40;99.90
39189;DHT22;24915;50.858;4.376;2022-11-15T07:03:11;10.40;99.90
39189;DHT22;24915;50.858;4.376;2022-11-15T07:05:37;10.40;99.90
39189;DHT22;24915;50.858;4.376;2022-11-15T07:08:03;10.40;99.90
39189;DHT22;24915;50.858;4.376;2022-11-15T07:10:29;10.40;99.90
39189;DHT22;24915;50.858;4.376;2022-11-15T07:12:56;10.40;99.90
39189;DHT22;24915;50.858;4.376;2022-11-15T07:15:24;10.40;99.90
39189;DHT22;24915;50.858;4.376;2022-11-15T07:17:50;10.40;99.90
39189;DHT22;24915;50.858;4.376;2022-11-15T07:20:16;10.40;99.90
39189;DHT22;24915;50.858;4.376;2022-11-15T07:22:42;10.40;99.90
39189;DHT22;24915;50.858;4.376;2022-11-15T07:25:11;10.40;99.90
39189;DHT22;24915;50.858;4.376;2022-11-15T07:27:37;10.40;99.90
39189;DHT22;24915;50.858;4.376;2022-11-15T07:30:03;10.40;99.90
39189;DHT22;24915;50.858;4.376;2022-11-15T07:32:29;10.40;99.90
39189;DHT22;24915;50.858;4.376;2022-11-15T07:34:55;10.40;99.90
39189;DHT22;24915;50.858;4.376;2022-11-15T07:37:20;10.40;99.90
39189;DHT22;24915;50.858;4.376;2022-11-15T07:39:46;10.40;99.90
39189;DHT22;24915;50.858;4.376;2022-11-15T07:42:12;10.50;99.90
39189;DHT22;24915;50.858;4.376;2022-11-15T07:44:56;10.50;99.90
39189;DHT22;24915;50.858;4.376;2022-11-15T07:47:22;10.50;99.90
39189;DHT22;24915;50.858;4.376;2022-11-15T07:49:47;10.50;99.90
39189;DHT22;24915;50.858;4.376;2022-11-15T07:52:13;10.50;99.90
39189;DHT22;24915;50.858;4.376;2022-11-15T07:54:39;10.50;99.90
39189;DHT22;24915;50.858;4.376;2022-11-15T07:57:05;10.50;99.90
39189;DHT22;24915;50.858;4.376;2022-11-15T07:59:32;10.60;99.90
39189;DHT22;24915;50.858;4.376;2022-11-15T08:02:04;10.60;99.90
39189;DHT22;24915;50.858;4.376;2022-11-15T08:04:30;10.60;99.90
39189;DHT22;24915;50.858;4.376;2022-11-15T08:06:55;10.70;99.90
39189;DHT22;24915;50.858;4.376;2022-11-15T08:09:22;10.80;99.90
39189;DHT22;24915;50.858;4.376;2022-11-15T08:11:48;10.80;99.90
39189;DHT22;24915;50.858;4.376;2022-11-15T08:14:13;10.80;99.90
39189;DHT22;24915;50.858;4.376;2022-11-15T08:16:39;10.90;99.90
39189;DHT22;24915;50.858;4.376;2022-11-15T08:19:05;10.90;99.90
39189;DHT22;24915;50.858;4.376;2022-11-15T08:21:30;11.00;99.90
39189;DHT22;24915;50.858;4.376;2022-11-15T08:23:56;11.00;99.90
39189;DHT22;24915;50.858;4.376;2022-11-15T08:26:22;11.00;99.90
39189;DHT22;24915;50.858;4.376;2022-11-15T08:28:47;11.00;99.90
39189;DHT22;24915;50.858;4.376;2022-11-15T08:31:15;11.00;99.90
39189;DHT22;24915;50.858;4.376;2022-11-15T08:33:43;10.90;99.90
39189;DHT22;24915;50.858;4.376;2022-11-15T08:36:13;10.90;99.90
39189;DHT22;24915;50.858;4.376;2022-11-15T08:38:40;11.00;99.90
39189;DHT22;24915;50.858;4.376;2022-11-15T08:41:05;11.00;99.90
39189;DHT22;24915;50.858;4.376;2022-11-15T08:43:31;11.00;99.90
39189;DHT22;24915;50.858;4.376;2022-11-15T08:45:58;11.00;99.90
39189;DHT22;24915;50.858;4.376;2022-11-15T08:48:24;11.10;99.90
39189;DHT22;24915;50.858;4.376;2022-11-15T08:50:56;11.10;99.90
39189;DHT22;24915;50.858;4.376;2022-11-15T08:53:22;11.10;99.90
39189;DHT22;24915;50.858;4.376;2022-11-15T08:55:47;11.20;99.90
39189;DHT22;24915;50.858;4.376;2022-11-15T08:58:13;11.20;99.90
39189;DHT22;24915;50.858;4.376;2022-11-15T09:00:39;11.20;99.90
39189;DHT22;24915;50.858;4.376;2022-11-15T09:03:06;11.30;99.90
39189;DHT22;24915;50.858;4.376;2022-11-15T09:05:32;11.40;99.90
39189;DHT22;24915;50.858;4.376;2022-11-15T09:07:57;11.50;99.90
39189;DHT22;24915;50.858;4.376;2022-11-15T09:10:23;11.60;99.90
39189;DHT22;24915;50.858;4.376;2022-11-15T09:12:49;11.60;99.90
39189;DHT22;24915;50.858;4.376;2022-11-15T09:15:16;11.70;99.90
39189;DHT22;24915;50.858;4.376;2022-11-15T09:17:42;11.70;99.90
39189;DHT22;24915;50.858;4.376;2022-11-15T09:20:08;11.60;99.90
39189;DHT22;24915;50.858;4.376;2022-11-15T09:22:34;11.50;99.90
39189;DHT22;24915;50.858;4.376;2022-11-15T09:25:02;11.50;99.90
39189;DHT22;24915;50.858;4.376;2022-11-15T09:27:29;11.60;99.90
39189;DHT22;24915;50.858;4.376;2022-11-15T09:29:55;11.70;99.90
39189;DHT22;24915;50.858;4.376;2022-11-15T09:32:21;11.80;99.90
39189;DHT22;24915;50.858;4.376;2022-11-15T09:34:51;12.00;99.90
39189;DHT22;24915;50.858;4.376;2022-11-15T09:37:17;12.00;99.90
39189;DHT22;24915;50.858;4.376;2022-11-15T09:39:42;12.20;99.90
39189;DHT22;24915;50.858;4.376;2022-11-15T09:44:55;12.40;99.90
39189;DHT22;24915;50.858;4.376;2022-11-15T09:49:59;12.60;99.90
39189;DHT22;24915;50.858;4.376;2022-11-15T09:52:26;12.70;99.90
39189;DHT22;24915;50.858;4.376;2022-11-15T09:54:53;12.70;99.90
39189;DHT22;24915;50.858;4.376;2022-11-15T10:05:14;12.90;99.90
39189;DHT22;24915;50.858;4.376;2022-11-15T10:13:16;13.00;99.90
39189;DHT22;24915;50.858;4.376;2022-11-15T10:15:44;13.10;99.90
39189;DHT22;24915;50.858;4.376;2022-11-15T10:18:35;13.10;99.90
39189;DHT22;24915;50.858;4.376;2022-11-15T10:21:17;13.10;99.90
39189;DHT22;24915;50.858;4.376;2022-11-15T10:23:43;13.10;99.90
39189;DHT22;24915;50.858;4.376;2022-11-15T10:26:13;13.10;99.90
39189;DHT22;24915;50.858;4.376;2022-11-15T10:28:40;13.20;99.90
39189;DHT22;24915;50.858;4.376;2022-11-15T10:31:25;13.30;99.90
39189;DHT22;24915;50.858;4.376;2022-11-15T10:33:53;13.30;99.90
39189;DHT22;24915;50.858;4.376;2022-11-15T10:36:23;13.30;99.90
39189;DHT22;24915;50.858;4.376;2022-11-15T10:41:19;13.60;99.90
39189;DHT22;24915;50.858;4.376;2022-11-15T10:44:00;13.50;99.90
39189;DHT22;24915;50.858;4.376;2022-11-15T10:46:26;13.60;99.90
39189;DHT22;24915;50.858;4.376;2022-11-15T10:48:52;13.50;99.90
39189;DHT22;24915;50.858;4.376;2022-11-15T10:51:24;13.30;99.90
39189;DHT22;24915;50.858;4.376;2022-11-15T10:53:54;13.20;99.90
39189;DHT22;24915;50.858;4.376;2022-11-15T10:56:22;13.20;99.90
39189;DHT22;24915;50.858;4.376;2022-11-15T10:58:55;13.20;99.90
39189;DHT22;24915;50.858;4.376;2022-11-15T11:04:01;13.20;99.90
39189;DHT22;24915;50.858;4.376;2022-11-15T11:06:28;13.10;99.90
39189;DHT22;24915;50.858;4.376;2022-11-15T11:09:02;13.10;99.90
39189;DHT22;24915;50.858;4.376;2022-11-15T11:11:48;13.20;99.90
39189;DHT22;24915;50.858;4.376;2022-11-15T11:14:26;13.10;99.90
39189;DHT22;24915;50.858;4.376;2022-11-15T11:39:30;13.60;99.90
39189;DHT22;24915;50.858;4.376;2022-11-15T11:42:10;13.50;99.90
39189;DHT22;24915;50.858;4.376;2022-11-15T11:50:00;13.50;99.90
39189;DHT22;24915;50.858;4.376;2022-11-15T11:55:21;13.40;99.90
39189;DHT22;24915;50.858;4.376;2022-11-15T12:00:51;13.30;99.90
39189;DHT22;24915;50.858;4.376;2022-11-15T12:06:30;13.30;99.90
39189;DHT22;24915;50.858;4.376;2022-11-15T12:09:07;13.30;99.90
39189;DHT22;24915;50.858;4.376;2022-11-15T12:14:49;13.30;99.90
39189;DHT22;24915;50.858;4.376;2022-11-15T12:17:19;13.40;99.90
39189;DHT22;24915;50.858;4.376;2022-11-15T12:19:47;13.30;99.90
39189;DHT22;24915;50.858;4.376;2022-11-15T12:22:20;13.30;99.90
39189;DHT22;24915;50.858;4.376;2022-11-15T12:27:58;13.30;99.90
39189;DHT22;24915;50.858;4.376;2022-11-15T12:30:52;13.30;99.90
39189;DHT22;24915;50.858;4.376;2022-11-15T12:36:44;13.30;99.90
39189;DHT22;24915;50.858;4.376;2022-11-15T12:39:06;13.40;99.90
39189;DHT22;24915;50.858;4.376;2022-11-15T12:47:22;13.40;99.90
39189;DHT22;24915;50.858;4.376;2022-11-15T12:49:50;13.40;99.90
39189;DHT22;24915;50.858;4.376;2022-11-15T12:52:18;13.40;99.90
39189;DHT22;24915;50.858;4.376;2022-11-15T12:54:50;13.40;99.90
39189;DHT22;24915;50.858;4.376;2022-11-15T13:02:25;13.60;99.90
39189;DHT22;24915;50.858;4.376;2022-11-15T13:04:54;13.60;99.90
39189;DHT22;24915;50.858;4.376;2022-11-15T13:17:49;13.70;99.90
39189;DHT22;24915;50.858;4.376;2022-11-15T13:25:28;13.70;99.90
39189;DHT22;24915;50.858;4.376;2022-11-15T13:28:00;13.70;99.90
39189;DHT22;24915;50.858;4.376;2022-11-15T13:30:28;13.70;99.90
39189;DHT22;24915;50.858;4.376;2022-11-15T13:32:55;13.70;99.90
39189;DHT22;24915;50.858;4.376;2022-11-15T13:35:25;13.70;99.90
39189;DHT22;24915;50.858;4.376;2022-11-15T13:37:54;13.70;99.90
39189;DHT22;24915;50.858;4.376;2022-11-15T13:40:28;13.70;99.90
39189;DHT22;24915;50.858;4.376;2022-11-15T13:42:56;13.80;99.90
39189;DHT22;24915;50.858;4.376;2022-11-15T13:45:23;13.70;99.90
39189;DHT22;24915;50.858;4.376;2022-11-15T13:47:56;13.70;99.90
39189;DHT22;24915;50.858;4.376;2022-11-15T13:50:26;13.70;99.90
39189;DHT22;24915;50.858;4.376;2022-11-15T13:52:53;13.70;99.90
39189;DHT22;24915;50.858;4.376;2022-11-15T13:55:22;13.80;99.90
39189;DHT22;24915;50.858;4.376;2022-11-15T13:57:58;13.80;99.90
39189;DHT22;24915;50.858;4.376;2022-11-15T14:00:37;13.80;99.90
39189;DHT22;24915;50.858;4.376;2022-11-15T14:03:20;13.80;99.90
39189;DHT22;24915;50.858;4.376;2022-11-15T14:08:32;13.80;99.90
39189;DHT22;24915;50.858;4.376;2022-11-15T14:11:17;13.80;99.90
39189;DHT22;24915;50.858;4.376;2022-11-15T14:16:36;13.70;99.90
39189;DHT22;24915;50.858;4.376;2022-11-15T14:19:03;13.70;99.90
39189;DHT22;24915;50.858;4.376;2022-11-15T14:21:30;13.70;99.90
39189;DHT22;24915;50.858;4.376;2022-11-15T14:24:19;13.70;99.90
39189;DHT22;24915;50.858;4.376;2022-11-15T14:26:45;13.70;99.90
39189;DHT22;24915;50.858;4.376;2022-11-15T14:29:27;13.70;99.90
39189;DHT22;24915;50.858;4.376;2022-11-15T14:32:12;13.70;99.90
39189;DHT22;24915;50.858;4.376;2022-11-15T14:34:38;13.60;99.90
39189;DHT22;24915;50.858;4.376;2022-11-15T14:37:04;13.60;99.90
39189;DHT22;24915;50.858;4.376;2022-11-15T14:39:30;13.50;99.90
39189;DHT22;24915;50.858;4.376;2022-11-15T14:41:56;13.50;99.90
39189;DHT22;24915;50.858;4.376;2022-11-15T14:44:21;13.50;99.90
39189;DHT22;24915;50.858;4.376;2022-11-15T14:46:47;13.40;99.90
39189;DHT22;24915;50.858;4.376;2022-11-15T14:49:14;13.30;99.90
39189;DHT22;24915;50.858;4.376;2022-11-15T14:51:40;13.30;99.90
39189;DHT22;24915;50.858;4.376;2022-11-15T14:54:10;13.30;99.90
39189;DHT22;24915;50.858;4.376;2022-11-15T14:56:35;13.20;99.90
39189;DHT22;24915;50.858;4.376;2022-11-15T14:59:01;13.20;99.90
39189;DHT22;24915;50.858;4.376;2022-11-15T15:01:30;13.20;99.90
39189;DHT22;24915;50.858;4.376;2022-11-15T15:03:56;13.20;99.90
39189;DHT22;24915;50.858;4.376;2022-11-15T15:06:23;13.20;99.90
39189;DHT22;24915;50.858;4.376;2022-11-15T15:08:49;13.20;99.90
39189;DHT22;24915;50.858;4.376;2022-11-15T15:11:21;13.10;99.90
39189;DHT22;24915;50.858;4.376;2022-11-15T15:13:48;13.10;99.90
39189;DHT22;24915;50.858;4.376;2022-11-15T15:16:13;13.10;99.90
39189;DHT22;24915;50.858;4.376;2022-11-15T15:18:39;13.10;99.90
39189;DHT22;24915;50.858;4.376;2022-11-15T15:21:26;13.10;99.90
39189;DHT22;24915;50.858;4.376;2022-11-15T15:23:53;13.00;99.90
39189;DHT22;24915;50.858;4.376;2022-11-15T15:26:25;13.00;99.90
39189;DHT22;24915;50.858;4.376;2022-11-15T15:28:50;13.00;99.90
39189;DHT22;24915;50.858;4.376;2022-11-15T15:31:17;13.00;99.90
39189;DHT22;24915;50.858;4.376;2022-11-15T15:33:43;12.90;99.90
39189;DHT22;24915;50.858;4.376;2022-11-15T15:36:14;12.90;99.90
39189;DHT22;24915;50.858;4.376;2022-11-15T15:38:40;12.90;99.90
39189;DHT22;24915;50.858;4.376;2022-11-15T15:41:14;12.80;99.90
39189;DHT22;24915;50.858;4.376;2022-11-15T15:43:39;12.80;99.90
39189;DHT22;24915;50.858;4.376;2022-11-15T15:46:15;12.80;99.90
39189;DHT22;24915;50.858;4.376;2022-11-15T15:48:42;12.80;99.90
39189;DHT22;24915;50.858;4.376;2022-11-15T15:51:08;12.80;99.90
39189;DHT22;24915;50.858;4.376;2022-11-15T15:53:34;12.80;99.90
39189;DHT22;24915;50.858;4.376;2022-11-15T15:56:00;12.70;99.90
39189;DHT22;24915;50.858;4.376;2022-11-15T15:58:25;12.70;99.90
39189;DHT22;24915;50.858;4.376;2022-11-15T16:00:51;12.70;99.90
39189;DHT22;24915;50.858;4.376;2022-11-15T16:03:17;12.70;99.90
39189;DHT22;24915;50.858;4.376;2022-11-15T16:05:43;12.70;99.90
39189;DHT22;24915;50.858;4.376;2022-11-15T16:08:20;12.70;99.90
39189;DHT22;24915;50.858;4.376;2022-11-15T16:10:47;12.70;99.90
39189;DHT22;24915;50.858;4.376;2022-11-15T16:13:13;12.70;99.90
39189;DHT22;24915;50.858;4.376;2022-11-15T16:15:38;12.70;99.90
39189;DHT22;24915;50.858;4.376;2022-11-15T16:18:05;12.70;99.90
39189;DHT22;24915;50.858;4.376;2022-11-15T16:20:41;12.70;99.90
39189;DHT22;24915;50.858;4.376;2022-11-15T16:23:14;12.70;99.90
39189;DHT22;24915;50.858;4.376;2022-11-15T16:25:51;12.70;99.90
39189;DHT22;24915;50.858;4.376;2022-11-15T16:28:28;12.70;99.90
39189;DHT22;24915;50.858;4.376;2022-11-15T16:31:04;12.70;99.90
39189;DHT22;24915;50.858;4.376;2022-11-15T16:33:30;12.60;99.90
39189;DHT22;24915;50.858;4.376;2022-11-15T16:35:56;12.70;99.90
39189;DHT22;24915;50.858;4.376;2022-11-15T16:38:22;12.60;99.90
39189;DHT22;24915;50.858;4.376;2022-11-15T16:40:48;12.60;99.90
39189;DHT22;24915;50.858;4.376;2022-11-15T16:43:14;12.60;99.90
39189;DHT22;24915;50.858;4.376;2022-11-15T16:45:39;12.60;99.90
39189;DHT22;24915;50.858;4.376;2022-11-15T16:48:05;12.60;99.90
39189;DHT22;24915;50.858;4.376;2022-11-15T16:50:33;12.60;99.90
39189;DHT22;24915;50.858;4.376;2022-11-15T16:53:06;12.60;99.90
39189;DHT22;24915;50.858;4.376;2022-11-15T16:55:31;12.60;99.90
39189;DHT22;24915;50.858;4.376;2022-11-15T16:57:57;12.60;99.90
39189;DHT22;24915;50.858;4.376;2022-11-15T17:00:29;12.60;99.90
39189;DHT22;24915;50.858;4.376;2022-11-15T17:02:54;12.60;99.90
39189;DHT22;24915;50.858;4.376;2022-11-15T17:05:22;12.60;99.90
39189;DHT22;24915;50.858;4.376;2022-11-15T17:07:50;12.60;99.90
39189;DHT22;24915;50.858;4.376;2022-11-15T17:10:24;12.60;99.90
39189;DHT22;24915;50.858;4.376;2022-11-15T17:12:50;12.60;99.90
39189;DHT22;24915;50.858;4.376;2022-11-15T17:15:17;12.60;99.90
39189;DHT22;24915;50.858;4.376;2022-11-15T17:17:43;12.60;99.90
39189;DHT22;24915;50.858;4.376;2022-11-15T17:20:15;12.60;99.90
39189;DHT22;24915;50.858;4.376;2022-11-15T17:22:41;12.60;99.90
39189;DHT22;24915;50.858;4.376;2022-11-15T17:25:07;12.60;99.90
39189;DHT22;24915;50.858;4.376;2022-11-15T17:27:32;12.60;99.90
39189;DHT22;24915;50.858;4.376;2022-11-15T17:29:58;12.60;99.90
39189;DHT22;24915;50.858;4.376;2022-11-15T17:32:24;12.60;99.90
39189;DHT22;24915;50.858;4.376;2022-11-15T17:34:49;12.60;99.90
39189;DHT22;24915;50.858;4.376;2022-11-15T17:37:15;12.60;99.90
39189;DHT22;24915;50.858;4.376;2022-11-15T17:39:40;12.60;99.90
39189;DHT22;24915;50.858;4.376;2022-11-15T17:42:06;12.60;99.90
39189;DHT22;24915;50.858;4.376;2022-11-15T17:44:32;12.50;99.90
39189;DHT22;24915;50.858;4.376;2022-11-15T17:46:57;12.50;99.90